Terminal Aerodrome Forecast
Issued by NWS Charleston, WV

Home | Current Version | Previous Version | Text Only | Print | Product List | Glossary On
Versions: 1 2 3 4 5 6 7 8 9 10 11 12 13 14 15 16 17 18 19 20 21 22 23 24 25 26 27 28 29
000
FTUS41 KRLX 262300
TAFEKN
TAF
KEKN 262326Z 2700/2724 35006KT P6SM FEW070
     FM270900 34005KT P6SM BKN020
     FM271300 30008KT P6SM BKN045
     FM271600 31010G20KT P6SM BKN045
     FM271900 30010G21KT 6SM -SHRA BKN045
     FM272300 30010G18KT P6SM BKN045=

USA.gov is the U.S. government's official web portal to all federal, state and local government web resources and services.